Time;durP1;ratioP1;P1;durP2;ratioP2;P2;SDS_P1;SDS_P2;PMS_P1;PMS_P2;Temp;Humidity;BMP_temperature;BMP_pressure;BME280_temperature;BME280_humidity;BME280_pressure;Samples;Min_cycle;Max_cycle;Signal;HPM_P1;HPM_P2
2021/12/03 00:02:19;;;;;;;6.78;3.30;;;-0.20;99.90;;;;;;5072600;28;20051;-88
2021/12/03 00:04:45;;;;;;;6.05;2.92;;;-0.20;99.90;;;;;;5071570;28;20044;-89
2021/12/03 00:07:10;;;;;;;6.80;3.10;;;-0.20;99.90;;;;;;5072085;28;20045;-89
2021/12/03 00:09:36;;;;;;;5.40;2.72;;;-0.20;99.90;;;;;;5071748;28;20120;-87
2021/12/03 00:12:03;;;;;;;6.35;3.08;;;-0.30;99.90;;;;;;5072742;28;20048;-89
2021/12/03 00:14:29;;;;;;;6.95;3.50;;;-0.30;99.90;;;;;;5073924;28;20078;-89
2021/12/03 00:16:55;;;;;;;5.50;3.58;;;-0.30;99.90;;;;;;5075347;28;20077;-89
2021/12/03 00:19:21;;;;;;;4.45;3.50;;;-0.30;99.90;;;;;;5058561;28;20493;-86
2021/12/03 00:21:47;;;;;;;6.40;3.50;;;-0.30;99.90;;;;;;5074823;28;20063;-87
2021/12/03 00:24:12;;;;;;;8.18;3.72;;;0.80;99.90;;;;;;5075471;28;20132;-89
2021/12/03 00:26:39;;;;;;;9.57;3.97;;;0.10;99.90;;;;;;5076392;28;20049;-90
2021/12/03 00:29:05;;;;;;;5.75;3.33;;;0.00;99.90;;;;;;5058628;28;20055;-91
2021/12/03 00:31:30;;;;;;;7.78;4.82;;;-0.30;99.90;;;;;;5076300;28;20037;-88
2021/12/03 00:33:56;;;;;;;6.07;3.70;;;0.40;99.90;;;;;;5076247;28;20044;-91
2021/12/03 00:36:23;;;;;;;7.55;4.53;;;0.40;99.90;;;;;;5075640;28;20079;-90
2021/12/03 00:38:54;;;;;;;7.43;4.10;;;0.10;99.90;;;;;;5076719;28;20424;-88
2021/12/03 00:41:20;;;;;;;10.40;5.53;;;-0.30;99.90;;;;;;5074853;28;20048;-86
2021/12/03 00:43:50;;;;;;;8.57;3.95;;;0.70;99.90;;;;;;5075801;28;20053;-88
2021/12/03 00:46:17;;;;;;;7.53;4.47;;;-0.30;99.90;;;;;;5075557;28;20044;-86
2021/12/03 00:48:51;;;;;;;10.55;4.88;;;-0.30;99.90;;;;;;5074583;28;20083;-87
2021/12/03 00:51:19;;;;;;;8.50;5.57;;;-0.30;99.90;;;;;;5076407;28;20091;-87
2021/12/03 00:53:45;;;;;;;7.88;5.18;;;0.40;99.90;;;;;;5075440;28;20056;-87
2021/12/03 00:56:12;;;;;;;10.50;5.90;;;0.50;99.90;;;;;;5076422;28;20115;-85
2021/12/03 00:58:38;;;;;;;9.52;5.10;;;-0.40;99.90;;;;;;5057977;28;20127;-89
2021/12/03 01:01:05;;;;;;;10.38;5.65;;;-0.30;99.90;;;;;;5075612;28;20483;-90
2021/12/03 01:03:31;;;;;;;8.73;5.53;;;-0.30;99.90;;;;;;5075378;28;20079;-88
2021/12/03 01:05:57;;;;;;;10.57;5.72;;;-0.30;99.90;;;;;;5075296;28;20056;-90
2021/12/03 01:08:23;;;;;;;9.68;5.82;;;-0.30;99.90;;;;;;5076269;28;20226;-86
2021/12/03 01:10:49;;;;;;;8.50;5.47;;;-0.30;99.90;;;;;;5058082;28;20085;-90
2021/12/03 01:13:15;;;;;;;10.13;6.47;;;-0.30;99.90;;;;;;5075232;28;20052;-88
2021/12/03 01:15:42;;;;;;;7.95;4.78;;;-0.20;99.90;;;;;;5075386;28;20044;-91
2021/12/03 01:18:10;;;;;;;9.02;5.60;;;1.00;99.90;;;;;;5075922;28;20500;-88
2021/12/03 01:20:37;;;;;;;9.32;5.85;;;-0.30;99.90;;;;;;5075857;28;20048;-92
2021/12/03 01:23:04;;;;;;;9.77;5.93;;;0.30;99.90;;;;;;5075606;28;20052;-89
2021/12/03 01:25:31;;;;;;;10.10;5.88;;;-0.30;99.90;;;;;;5074577;28;20044;-90
2021/12/03 01:27:59;;;;;;;12.95;7.40;;;0.80;99.90;;;;;;5074611;28;20053;-91
2021/12/03 01:30:26;;;;;;;9.70;6.22;;;-0.20;99.90;;;;;;5075369;28;20044;-86
2021/12/03 01:32:52;;;;;;;9.77;6.32;;;-0.30;99.90;;;;;;5074854;28;20139;-86
2021/12/03 01:35:19;;;;;;;13.88;7.38;;;-0.30;99.90;;;;;;5074352;28;20200;-88
2021/12/03 01:37:45;;;;;;;11.70;6.13;;;-0.20;99.90;;;;;;5075632;28;20044;-90
2021/12/03 01:40:16;;;;;;;15.13;8.77;;;-0.20;99.90;;;;;;5075505;28;20045;-89
2021/12/03 01:42:44;;;;;;;10.50;6.75;;;-0.10;99.90;;;;;;5058370;28;20534;-88
2021/12/03 01:45:16;;;;;;;12.00;7.05;;;-0.10;99.90;;;;;;5075608;28;20087;-90
2021/12/03 01:47:43;;;;;;;10.48;5.85;;;-0.20;99.90;;;;;;5076941;28;20048;-89
2021/12/03 01:50:10;;;;;;;11.27;6.97;;;0.50;99.90;;;;;;5075293;28;20045;-93
2021/12/03 01:52:37;;;;;;;12.07;8.15;;;-0.20;99.90;;;;;;5076298;28;20067;-92
2021/12/03 01:55:05;;;;;;;13.35;8.38;;;0.20;99.90;;;;;;5074148;28;20052;-89
2021/12/03 01:57:30;;;;;;;10.98;8.02;;;-0.20;99.90;;;;;;5076047;28;20049;-90
2021/12/03 01:59:56;;;;;;;14.73;9.35;;;-0.20;99.90;;;;;;5075331;28;20048;-90
2021/12/03 02:02:22;;;;;;;16.05;9.05;;;-0.20;99.90;;;;;;5075813;28;20075;-90
2021/12/03 02:04:48;;;;;;;17.02;10.18;;;-0.20;99.90;;;;;;5074710;28;20135;-88
2021/12/03 02:07:14;;;;;;;14.70;8.02;;;-0.20;99.90;;;;;;5074411;28;20082;-93
2021/12/03 02:09:41;;;;;;;12.02;8.27;;;-0.10;99.90;;;;;;5075268;28;20185;-89
2021/12/03 02:12:07;;;;;;;16.90;9.20;;;0.30;99.90;;;;;;5075832;28;20052;-92
2021/12/03 02:14:33;;;;;;;15.77;10.05;;;-0.20;99.90;;;;;;5075054;28;20098;-90
2021/12/03 02:16:58;;;;;;;13.55;8.60;;;-0.10;99.90;;;;;;5074459;28;20040;-88
2021/12/03 02:19:24;;;;;;;16.27;10.52;;;-0.20;99.90;;;;;;5074378;28;20123;-86
2021/12/03 02:21:50;;;;;;;18.27;10.85;;;0.90;99.90;;;;;;5075288;28;20511;-92
2021/12/03 02:24:21;;;;;;;13.40;9.18;;;0.30;99.90;;;;;;5057146;28;20048;-91
2021/12/03 02:26:47;;;;;;;18.15;11.38;;;0.00;99.90;;;;;;5073596;28;20496;-88
2021/12/03 02:29:12;;;;;;;17.48;11.55;;;0.60;99.90;;;;;;5074628;28;20036;-87
2021/12/03 02:31:38;;;;;;;17.35;10.52;;;0.00;99.90;;;;;;5074727;28;20066;-89
2021/12/03 02:34:04;;;;;;;17.65;10.45;;;0.60;99.90;;;;;;5073916;28;20098;-91
2021/12/03 02:36:30;;;;;;;22.23;14.85;;;0.00;99.90;;;;;;5074310;28;20473;-87
2021/12/03 02:38:55;;;;;;;21.13;12.50;;;1.10;99.90;;;;;;5073389;28;20036;-90
2021/12/03 02:41:21;;;;;;;23.13;13.60;;;0.60;99.90;;;;;;5074916;28;20425;-89
2021/12/03 02:43:47;;;;;;;21.63;12.27;;;0.00;99.90;;;;;;5057997;28;20048;-91
2021/12/03 02:46:13;;;;;;;19.45;12.48;;;0.50;99.90;;;;;;5075269;28;20105;-88
2021/12/03 02:48:39;;;;;;;19.48;13.23;;;0.00;99.90;;;;;;5073767;28;20055;-91
2021/12/03 02:51:07;;;;;;;17.08;12.45;;;0.00;99.90;;;;;;5074534;28;20048;-90
2021/12/03 02:53:34;;;;;;;22.80;15.00;;;0.00;99.90;;;;;;5039933;28;20055;-88
2021/12/03 02:56:00;;;;;;;19.60;12.57;;;0.00;99.90;;;;;;5074819;28;20052;-94
2021/12/03 02:58:26;;;;;;;20.23;12.68;;;0.00;99.90;;;;;;5073217;28;20053;-89
2021/12/03 03:00:53;;;;;;;20.02;13.77;;;0.70;99.90;;;;;;5073158;28;20052;-92
2021/12/03 03:03:20;;;;;;;20.65;13.68;;;0.20;99.90;;;;;;5074800;28;20063;-86
2021/12/03 03:05:59;;;;;;;18.30;11.57;;;0.90;99.90;;;;;;5075385;28;20051;-90
2021/12/03 03:08:25;;;;;;;19.98;13.02;;;0.10;99.90;;;;;;5075362;28;20376;-89
2021/12/03 03:10:53;;;;;;;18.77;13.10;;;0.00;99.90;;;;;;5074468;28;20106;-93
2021/12/03 03:13:19;;;;;;;21.85;14.52;;;1.20;99.90;;;;;;5073321;28;20041;-89
2021/12/03 03:15:46;;;;;;;17.80;14.18;;;0.10;99.90;;;;;;5073706;28;20481;-91
2021/12/03 03:18:18;;;;;;;19.40;12.93;;;0.50;99.90;;;;;;5074117;28;20052;-87
2021/12/03 03:20:45;;;;;;;17.65;11.40;;;1.20;99.90;;;;;;5074648;28;20393;-90
2021/12/03 03:23:13;;;;;;;18.50;11.50;;;0.00;99.90;;;;;;5075969;28;20040;-90
2021/12/03 03:25:41;;;;;;;16.05;11.45;;;0.00;99.90;;;;;;5075687;28;20040;-92
2021/12/03 03:28:08;;;;;;;19.48;12.77;;;0.10;99.90;;;;;;5075862;28;20072;-89
2021/12/03 03:30:35;;;;;;;16.35;10.05;;;0.90;99.90;;;;;;5075617;28;20060;-91
2021/12/03 03:33:02;;;;;;;17.88;12.02;;;0.10;99.90;;;;;;5075891;28;20060;-92
2021/12/03 03:35:28;;;;;;;19.33;13.77;;;0.20;99.90;;;;;;5075305;28;20504;-93
2021/12/03 03:37:54;;;;;;;21.40;15.80;;;0.10;99.90;;;;;;5076242;28;20396;-92
2021/12/03 03:40:20;;;;;;;17.90;12.98;;;0.10;99.90;;;;;;5074395;28;20052;-90
2021/12/03 03:42:46;;;;;;;17.42;11.80;;;1.10;99.90;;;;;;5074877;28;20044;-92
2021/12/03 03:45:14;;;;;;;20.42;13.13;;;0.50;99.90;;;;;;5074203;28;20044;-94
2021/12/03 03:47:41;;;;;;;17.30;11.93;;;0.10;99.90;;;;;;5074300;28;20048;-89
2021/12/03 03:50:07;;;;;;;20.45;12.18;;;0.00;99.90;;;;;;5077007;28;20524;-89
2021/12/03 03:52:35;;;;;;;16.27;12.15;;;0.00;99.90;;;;;;5079482;28;20064;-87
2021/12/03 03:55:01;;;;;;;14.80;11.27;;;1.40;99.90;;;;;;5077836;28;20066;-93
2021/12/03 03:57:27;;;;;;;20.88;14.07;;;0.70;99.90;;;;;;5077706;28;20040;-94
2021/12/03 03:59:54;;;;;;;16.55;11.30;;;0.00;99.90;;;;;;5077952;28;20048;-92
2021/12/03 04:02:20;;;;;;;19.83;11.02;;;0.20;99.90;;;;;;5077600;28;20052;-93
2021/12/03 04:04:45;;;;;;;17.55;11.85;;;0.00;99.90;;;;;;5078016;28;20112;-89
2021/12/03 04:07:11;;;;;;;15.77;12.00;;;0.00;99.90;;;;;;5078982;28;20063;-85
2021/12/03 04:09:37;;;;;;;17.67;11.95;;;1.10;99.90;;;;;;5077684;28;20037;-91
2021/12/03 04:12:03;;;;;;;17.83;13.20;;;0.70;99.90;;;;;;5078737;28;20401;-87
2021/12/03 04:14:29;;;;;;;18.92;12.98;;;0.00;99.90;;;;;;5078509;28;20059;-89
2021/12/03 04:16:55;;;;;;;16.02;10.98;;;0.00;99.90;;;;;;5078767;28;20127;-92
2021/12/03 04:19:20;;;;;;;17.27;13.35;;;1.40;99.90;;;;;;5078800;28;20044;-91
2021/12/03 04:21:46;;;;;;;17.08;11.93;;;0.40;99.90;;;;;;5078357;28;20044;-86
2021/12/03 04:24:12;;;;;;;17.48;11.77;;;0.10;99.90;;;;;;5077423;28;20102;-93
2021/12/03 04:26:38;;;;;;;16.08;12.55;;;0.10;99.90;;;;;;5077213;28;20036;-90
2021/12/03 04:29:04;;;;;;;18.15;12.27;;;0.10;99.90;;;;;;5078517;28;20196;-85
2021/12/03 04:31:30;;;;;;;15.77;12.18;;;0.10;99.90;;;;;;5060553;28;20130;-87
2021/12/03 04:33:56;;;;;;;16.77;11.90;;;0.10;99.90;;;;;;5077464;28;20052;-87
2021/12/03 04:36:22;;;;;;;18.58;12.98;;;0.10;99.90;;;;;;5077881;28;20047;-88
2021/12/03 04:38:47;;;;;;;17.02;12.50;;;1.00;99.90;;;;;;5078584;28;20044;-91
2021/12/03 04:41:13;;;;;;;20.70;11.15;;;1.70;99.90;;;;;;5077831;28;20443;-90
2021/12/03 04:43:39;;;;;;;14.85;11.60;;;0.10;99.90;;;;;;5060962;28;20458;-90
2021/12/03 04:46:05;;;;;;;17.02;11.85;;;0.00;99.90;;;;;;5077629;28;20124;-87
2021/12/03 04:48:31;;;;;;;21.00;14.77;;;0.50;99.90;;;;;;5077728;28;20464;-91
2021/12/03 04:50:57;;;;;;;19.17;13.45;;;0.00;99.90;;;;;;5077617;28;20049;-89
2021/12/03 04:53:22;;;;;;;18.77;14.88;;;0.00;99.90;;;;;;5076743;28;20049;-90
2021/12/03 04:55:49;;;;;;;18.52;13.93;;;0.10;99.90;;;;;;5077313;28;20108;-90
2021/12/03 04:58:16;;;;;;;18.67;13.18;;;0.80;99.90;;;;;;5077739;28;20052;-91
2021/12/03 05:00:45;;;;;;;17.65;13.13;;;0.10;99.90;;;;;;5075834;28;20076;-90
2021/12/03 05:03:11;;;;;;;19.20;13.88;;;0.10;99.90;;;;;;5075589;28;20048;-92
2021/12/03 05:05:39;;;;;;;16.35;12.35;;;0.10;99.90;;;;;;5075417;28;20052;-89
2021/12/03 05:08:09;;;;;;;17.05;11.43;;;0.50;99.90;;;;;;5076105;28;20048;-88
2021/12/03 05:10:37;;;;;;;19.98;12.45;;;0.10;99.90;;;;;;5076704;28;20101;-88
2021/12/03 05:13:16;;;;;;;19.67;11.88;;;0.10;99.90;;;;;;5075439;28;20045;-90
2021/12/03 05:15:43;;;;;;;22.92;14.75;;;0.10;99.90;;;;;;5075803;28;20482;-89
2021/12/03 05:18:11;;;;;;;16.20;11.88;;;0.10;99.90;;;;;;5076202;28;20439;-90
2021/12/03 05:20:37;;;;;;;16.88;12.35;;;1.40;99.90;;;;;;5076649;28;20048;-87
2021/12/03 05:23:03;;;;;;;21.00;12.07;;;0.60;99.90;;;;;;5075235;28;20055;-87
2021/12/03 05:25:30;;;;;;;19.77;12.82;;;0.70;99.90;;;;;;5076838;28;20037;-92
2021/12/03 05:27:56;;;;;;;19.98;13.57;;;0.10;99.90;;;;;;5076965;28;20044;-89
2021/12/03 05:30:22;;;;;;;22.95;13.23;;;0.10;99.90;;;;;;5058522;28;20045;-88
2021/12/03 05:32:48;;;;;;;24.13;13.82;;;0.20;99.90;;;;;;5076903;28;20567;-90
2021/12/03 05:35:14;;;;;;;21.17;14.60;;;0.20;99.90;;;;;;5075862;28;20091;-91
2021/12/03 05:37:40;;;;;;;18.60;11.85;;;0.50;99.90;;;;;;5076668;28;20520;-88
2021/12/03 05:40:08;;;;;;;21.50;13.43;;;1.10;99.90;;;;;;5077189;28;20052;-91
2021/12/03 05:42:33;;;;;;;20.33;14.73;;;0.20;99.90;;;;;;5076955;28;20052;-88
2021/12/03 05:44:59;;;;;;;20.20;13.05;;;1.00;99.90;;;;;;5076121;28;20054;-87
2021/12/03 05:47:25;;;;;;;17.77;12.40;;;1.50;99.90;;;;;;5076024;28;20412;-92
2021/12/03 05:49:51;;;;;;;22.08;11.88;;;0.20;99.90;;;;;;5076138;28;20151;-91
2021/12/03 05:52:17;;;;;;;21.27;14.48;;;0.30;99.90;;;;;;5075784;28;20072;-85
2021/12/03 05:54:45;;;;;;;19.45;12.88;;;0.30;99.90;;;;;;5074740;28;20045;-93
2021/12/03 05:57:11;;;;;;;24.70;14.15;;;0.70;99.90;;;;;;5074523;28;20106;-93
2021/12/03 05:59:37;;;;;;;21.90;14.32;;;1.50;99.90;;;;;;5076381;28;20041;-91
2021/12/03 06:02:02;;;;;;;21.60;13.00;;;0.30;99.90;;;;;;5074750;28;20037;-89
2021/12/03 06:04:29;;;;;;;21.48;14.55;;;0.40;99.90;;;;;;5075873;28;20052;-92
2021/12/03 06:06:55;;;;;;;19.80;13.02;;;0.30;99.90;;;;;;5076743;28;20097;-89
2021/12/03 06:09:21;;;;;;;23.02;13.82;;;0.30;99.90;;;;;;5058354;28;20044;-89
2021/12/03 06:11:47;;;;;;;21.50;14.45;;;0.30;99.90;;;;;;5075051;28;20492;-88
2021/12/03 06:14:13;;;;;;;18.75;12.77;;;0.50;99.90;;;;;;5076015;28;20045;-90
2021/12/03 06:16:38;;;;;;;21.60;13.25;;;0.40;99.90;;;;;;5077562;28;20091;-84
2021/12/03 06:19:04;;;;;;;25.83;15.93;;;0.40;99.90;;;;;;5080274;28;20037;-88
2021/12/03 06:21:30;;;;;;;21.95;14.27;;;0.40;99.90;;;;;;5076248;28;20114;-88
2021/12/03 06:23:56;;;;;;;22.55;13.50;;;0.40;99.90;;;;;;5073495;28;20088;-79
2021/12/03 06:26:21;;;;;;;20.80;12.93;;;0.40;99.90;;;;;;5073450;28;20048;-77
2021/12/03 06:28:47;;;;;;;22.48;15.82;;;1.50;99.90;;;;;;5072312;28;20082;-77
2021/12/03 06:31:13;;;;;;;21.60;13.35;;;0.40;99.90;;;;;;5072335;28;20147;-77
2021/12/03 06:33:39;;;;;;;24.90;14.55;;;1.40;99.90;;;;;;5073391;28;20501;-77
2021/12/03 06:36:06;;;;;;;24.10;15.02;;;0.40;99.90;;;;;;5072712;28;20057;-79
2021/12/03 06:38:32;;;;;;;22.08;13.02;;;0.40;99.90;;;;;;5073480;28;20060;-81
2021/12/03 06:40:59;;;;;;;22.98;13.68;;;1.10;99.90;;;;;;5056040;28;20512;-79
2021/12/03 06:43:25;;;;;;;23.23;15.80;;;0.40;99.90;;;;;;5073583;28;20051;-79
2021/12/03 06:45:51;;;;;;;20.13;12.82;;;0.40;99.90;;;;;;5073195;28;20044;-78
2021/12/03 06:48:16;;;;;;;23.63;13.63;;;0.40;99.90;;;;;;5072746;28;20115;-78
2021/12/03 06:50:44;;;;;;;24.30;12.88;;;0.40;99.90;;;;;;5073446;28;20051;-78
2021/12/03 06:53:12;;;;;;;23.92;15.05;;;0.40;99.90;;;;;;5072402;28;20048;-81
2021/12/03 06:55:46;;;;;;;25.98;15.55;;;0.40;99.90;;;;;;5073535;28;20374;-78
2021/12/03 06:58:14;;;;;;;33.15;18.25;;;0.40;99.90;;;;;;5073222;28;20082;-80
2021/12/03 07:00:39;;;;;;;28.08;15.77;;;0.40;99.90;;;;;;5072662;28;20052;-82
2021/12/03 07:03:05;;;;;;;24.50;12.77;;;1.40;99.90;;;;;;5073377;28;20045;-80
2021/12/03 07:05:31;;;;;;;28.20;15.30;;;0.40;99.90;;;;;;5073493;28;20131;-80
2021/12/03 07:07:57;;;;;;;28.63;16.88;;;0.50;99.90;;;;;;5073079;28;20044;-80
2021/12/03 07:10:22;;;;;;;25.50;15.30;;;0.50;99.90;;;;;;5072166;28;20098;-81
2021/12/03 07:12:48;;;;;;;29.92;17.65;;;1.50;99.90;;;;;;5072162;28;20127;-81
2021/12/03 07:15:14;;;;;;;26.73;15.02;;;1.70;99.90;;;;;;5072168;28;20480;-80
2021/12/03 07:17:40;;;;;;;24.58;15.50;;;1.50;99.90;;;;;;5073305;28;20143;-79
2021/12/03 07:20:07;;;;;;;25.63;14.38;;;0.60;99.90;;;;;;5072405;28;20101;-80
2021/12/03 07:22:34;;;;;;;27.70;15.88;;;0.60;99.90;;;;;;5072227;28;20079;-78
2021/12/03 07:24:59;;;;;;;29.40;17.98;;;1.10;99.90;;;;;;5076005;28;20497;-81
2021/12/03 07:27:25;;;;;;;29.77;15.35;;;0.70;99.90;;;;;;5076060;28;20048;-91
2021/12/03 07:29:51;;;;;;;26.88;15.18;;;0.80;99.90;;;;;;5079266;28;20048;-88
2021/12/03 07:32:19;;;;;;;25.45;15.48;;;0.80;99.90;;;;;;5077560;28;20470;-88
2021/12/03 07:34:45;;;;;;;30.73;16.75;;;0.80;99.90;;;;;;5078020;28;20081;-87
2021/12/03 07:37:11;;;;;;;29.05;15.48;;;1.00;99.90;;;;;;5079086;28;20067;-87
2021/12/03 07:39:37;;;;;;;33.05;17.40;;;0.80;99.90;;;;;;5078223;28;20477;-85
2021/12/03 07:42:04;;;;;;;31.58;15.13;;;0.90;99.90;;;;;;5077741;28;20056;-87
2021/12/03 07:44:30;;;;;;;34.13;18.42;;;0.80;99.90;;;;;;5075517;28;20098;-84
2021/12/03 07:46:56;;;;;;;28.13;13.95;;;0.70;99.90;;;;;;5077535;28;20040;-85
2021/12/03 07:49:23;;;;;;;35.13;16.75;;;0.90;99.90;;;;;;5077290;28;20477;-83
2021/12/03 07:51:48;;;;;;;32.47;18.45;;;0.80;99.90;;;;;;5075414;28;20542;-85
2021/12/03 07:54:14;;;;;;;35.47;17.73;;;0.80;99.90;;;;;;5075504;28;20045;-89
2021/12/03 07:56:40;;;;;;;32.42;16.98;;;0.90;99.90;;;;;;5076812;28;20052;-82
2021/12/03 07:59:06;;;;;;;33.53;19.55;;;0.90;99.90;;;;;;5075446;28;20123;-85
2021/12/03 08:01:33;;;;;;;38.70;17.75;;;0.90;99.90;;;;;;5075622;28;20431;-89
2021/12/03 08:03:59;;;;;;;36.70;16.63;;;1.00;99.90;;;;;;5075808;28;20052;-88
2021/12/03 08:06:25;;;;;;;29.85;16.73;;;1.00;99.90;;;;;;5076777;28;20045;-86
2021/12/03 08:08:50;;;;;;;33.47;18.20;;;1.00;99.90;;;;;;5075468;28;20040;-90
2021/12/03 08:11:16;;;;;;;35.78;17.75;;;1.00;99.90;;;;;;5075830;28;20041;-83
2021/12/03 08:13:42;;;;;;;38.72;18.55;;;2.20;99.90;;;;;;5076354;28;20087;-85
2021/12/03 08:16:07;;;;;;;35.20;18.67;;;1.20;99.90;;;;;;5074920;28;20392;-78
2021/12/03 08:18:34;;;;;;;30.88;17.33;;;1.20;99.90;;;;;;5075266;28;20056;-82
2021/12/03 08:21:00;;;;;;;35.90;19.00;;;1.20;99.90;;;;;;5075410;28;20045;-80
2021/12/03 08:23:27;;;;;;;42.47;19.73;;;1.20;99.90;;;;;;5075121;28;20120;-81
2021/12/03 08:25:52;;;;;;;40.67;19.60;;;1.30;99.90;;;;;;5074845;28;20507;-81
2021/12/03 08:28:18;;;;;;;41.55;18.73;;;1.30;99.90;;;;;;5057921;28;20123;-82
2021/12/03 08:30:44;;;;;;;40.03;20.45;;;2.40;99.90;;;;;;5075929;28;20087;-82
2021/12/03 08:33:10;;;;;;;48.00;20.80;;;1.30;99.90;;;;;;5076089;28;20507;-82
2021/12/03 08:35:36;;;;;;;46.53;23.48;;;1.40;99.90;;;;;;5074424;28;20053;-82
2021/12/03 08:38:02;;;;;;;37.90;19.67;;;1.30;99.90;;;;;;5075927;28;20083;-84
2021/12/03 08:40:27;;;;;;;45.13;21.60;;;1.40;99.90;;;;;;5074523;28;20119;-84
2021/12/03 08:42:53;;;;;;;39.13;18.52;;;1.40;99.90;;;;;;5075820;28;20247;-84
2021/12/03 08:45:20;;;;;;;48.92;21.30;;;1.40;99.90;;;;;;5075414;28;20472;-81
2021/12/03 08:47:51;;;;;;;45.05;22.80;;;1.50;99.90;;;;;;5074528;28;20048;-83
2021/12/03 08:50:27;;;;;;;45.10;18.58;;;1.40;99.90;;;;;;5075406;28;20561;-87
2021/12/03 08:55:39;;;;;;;53.10;23.27;;;1.50;99.90;;;;;;5074353;28;20484;-83
2021/12/03 08:58:05;;;;;;;49.80;22.42;;;1.50;99.90;;;;;;5075407;28;20083;-78
2021/12/03 09:00:33;;;;;;;50.22;22.00;;;2.00;99.90;;;;;;5075410;28;20044;-77
2021/12/03 09:02:59;;;;;;;55.40;23.70;;;1.50;99.90;;;;;;5076084;28;20359;-79
2021/12/03 09:05:30;;;;;;;49.25;20.88;;;1.60;99.90;;;;;;5074491;28;20044;-77
2021/12/03 09:07:57;;;;;;;58.30;26.70;;;1.50;99.90;;;;;;5074304;28;20474;-77
2021/12/03 09:10:24;;;;;;;49.72;21.35;;;1.60;99.90;;;;;;5074877;28;20492;-80
2021/12/03 09:12:51;;;;;;;53.65;23.77;;;2.40;99.90;;;;;;5075570;28;20093;-79
2021/12/03 09:15:23;;;;;;;50.75;23.08;;;1.80;99.90;;;;;;5075216;28;20073;-76
2021/12/03 09:18:10;;;;;;;50.17;22.75;;;1.80;99.90;;;;;;5075130;28;20040;-78
2021/12/03 09:23:14;;;;;;;60.08;24.77;;;1.80;99.90;;;;;;5075256;28;20091;-79
2021/12/03 09:25:48;;;;;;;47.35;19.48;;;1.90;99.90;;;;;;5076201;28;20063;-84
2021/12/03 09:28:14;;;;;;;49.95;21.23;;;1.90;99.90;;;;;;5076191;28;20049;-86
2021/12/03 09:30:41;;;;;;;49.95;21.95;;;2.50;99.90;;;;;;5057784;28;20059;-84
2021/12/03 09:33:11;;;;;;;51.78;23.13;;;2.80;99.90;;;;;;5076040;28;20048;-84
2021/12/03 09:35:50;;;;;;;46.75;21.05;;;2.00;99.90;;;;;;5078740;28;20052;-85
2021/12/03 09:38:16;;;;;;;43.65;20.60;;;2.00;99.90;;;;;;5074822;28;20401;-82
2021/12/03 09:40:43;;;;;;;45.90;19.75;;;2.00;99.90;;;;;;5073865;28;20056;-87
2021/12/03 09:43:09;;;;;;;52.38;23.95;;;2.00;99.90;;;;;;5073348;28;20056;-79
2021/12/03 09:45:37;;;;;;;46.45;19.48;;;2.00;99.90;;;;;;5073899;28;20044;-82
2021/12/03 09:48:15;;;;;;;42.53;20.52;;;2.10;99.90;;;;;;5074540;28;20083;-84
2021/12/03 09:50:41;;;;;;;54.67;20.77;;;2.10;99.90;;;;;;5074060;28;20132;-85
2021/12/03 09:55:51;;;;;;;49.33;21.20;;;2.10;99.90;;;;;;5072957;28;20052;-82
2021/12/03 10:01:18;;;;;;;38.55;19.13;;;2.20;99.90;;;;;;5057423;28;20063;-84
2021/12/03 10:15:05;;;;;;;34.72;16.30;;;2.30;99.90;;;;;;5073802;28;20135;-78
2021/12/03 10:17:45;;;;;;;33.17;16.00;;;2.30;99.90;;;;;;5073508;28;20087;-76
2021/12/03 10:34:12;;;;;;;27.77;13.18;;;3.30;99.90;;;;;;5073838;28;20057;-78
2021/12/03 10:42:58;;;;;;;21.85;11.82;;;2.50;99.90;;;;;;5073701;28;20057;-78
2021/12/03 10:50:43;;;;;;;21.85;9.82;;;2.50;99.90;;;;;;5073541;28;20094;-79
2021/12/03 10:53:34;;;;;;;21.65;9.55;;;2.50;99.90;;;;;;5073588;28;20131;-81
2021/12/03 11:12:54;;;;;;;19.60;8.07;;;2.70;99.90;;;;;;5073837;28;20092;-78
2021/12/03 11:34:41;;;;;;;13.23;6.07;;;2.60;99.90;;;;;;5073592;28;20230;-77
2021/12/03 11:38:11;;;;;;;13.77;5.55;;;2.60;99.90;;;;;;5072897;28;20057;-78
2021/12/03 12:24:58;;;;;;;10.10;5.53;;;2.00;99.90;;;;;;5075404;28;20065;-79
2021/12/03 12:39:29;;;;;;;11.52;6.15;;;2.70;99.90;;;;;;5074631;28;20105;-77
2021/12/03 14:56:06;;;;;;;11.32;4.50;;;3.20;99.90;;;;;;5073420;28;20082;-76
2021/12/03 15:04:26;;;;;;;10.45;5.45;;;3.20;99.90;;;;;;5072672;28;20136;-77
2021/12/03 15:07:06;;;;;;;12.98;6.18;;;3.20;99.90;;;;;;5073364;28;20054;-76
2021/12/03 15:09:40;;;;;;;16.45;5.95;;;3.30;99.90;;;;;;5073347;28;20041;-77
2021/12/03 15:15:12;;;;;;;9.00;4.75;;;3.40;99.90;;;;;;5071753;28;20509;-82
2021/12/03 15:28:39;;;;;;;8.48;5.15;;;3.50;99.90;;;;;;5074070;28;20088;-81
2021/12/03 15:37:07;;;;;;;10.02;4.25;;;3.80;99.90;;;;;;5068522;28;20139;-82
2021/12/03 16:04:07;;;;;;;8.00;5.07;;;3.70;99.90;;;;;;5076308;28;20060;-82
2021/12/03 16:06:39;;;;;;;;;;;3.70;99.90;;;;;;5064624;28;20056;-80
2021/12/03 16:09:27;;;;;;;9.75;5.57;;;3.90;99.90;;;;;;5078844;28;19920;-83
2021/12/03 16:12:07;;;;;;;12.02;5.57;;;3.70;99.90;;;;;;5075592;28;20055;-84
2021/12/03 16:51:47;;;;;;;9.45;6.70;;;3.60;99.90;;;;;;5075727;28;20059;-78
2021/12/03 16:54:16;;;;;;;8.73;6.50;;;3.70;99.90;;;;;;5075745;28;20049;-80
2021/12/03 16:56:45;;;;;;;9.15;6.00;;;3.60;99.90;;;;;;5073572;28;20103;-80
2021/12/03 16:59:12;;;;;;;9.52;6.72;;;3.50;99.90;;;;;;5075594;28;20103;-78
2021/12/03 17:01:45;;;;;;;10.02;6.20;;;3.50;99.90;;;;;;5075210;28;20048;-79
2021/12/03 17:12:16;;;;;;;11.23;6.63;;;3.50;99.90;;;;;;5075861;28;20092;-77
2021/12/03 17:15:00;;;;;;;14.07;7.75;;;3.60;99.90;;;;;;5075093;28;20075;-81
2021/12/03 17:18:18;;;;;;;9.48;7.40;;;3.60;99.90;;;;;;5074191;28;20488;-79
2021/12/03 17:57:02;;;;;;;16.20;10.23;;;3.60;99.90;;;;;;5057052;28;20559;-80
2021/12/03 17:59:37;;;;;;;14.07;9.18;;;3.90;99.90;;;;;;5073689;28;20056;-77
2021/12/03 18:58:04;;;;;;;21.55;12.65;;;3.70;99.90;;;;;;5073691;28;20135;-81
2021/12/03 19:00:35;;;;;;;21.08;11.60;;;3.70;99.90;;;;;;5073469;28;20032;-82
2021/12/03 19:03:08;;;;;;;21.85;12.85;;;3.70;99.90;;;;;;5073553;28;20056;-81
2021/12/03 19:10:27;;;;;;;23.10;13.68;;;3.70;99.90;;;;;;5071880;28;20044;-82
2021/12/03 19:13:00;;;;;;;26.00;14.27;;;3.70;99.90;;;;;;5072239;28;20071;-84
2021/12/03 19:15:26;;;;;;;25.05;14.73;;;3.80;99.90;;;;;;5057040;28;20362;-81
2021/12/03 19:17:53;;;;;;;22.25;11.80;;;3.80;99.90;;;;;;5038837;28;20052;-88
2021/12/03 19:20:23;;;;;;;23.58;13.30;;;3.80;99.90;;;;;;5076159;28;20098;-86
2021/12/03 19:22:51;;;;;;;21.35;12.85;;;3.90;99.90;;;;;;5077277;28;20060;-83
2021/12/03 19:25:17;;;;;;;24.50;14.52;;;3.80;99.90;;;;;;5077721;28;20095;-90
2021/12/03 19:27:43;;;;;;;24.10;13.38;;;3.80;99.90;;;;;;5078068;28;20421;-78
2021/12/03 19:30:10;;;;;;;20.00;11.27;;;3.80;99.90;;;;;;5079329;28;20107;-80
2021/12/03 19:32:36;;;;;;;28.77;14.77;;;3.80;99.90;;;;;;5078482;28;20047;-78
2021/12/03 19:35:03;;;;;;;26.73;13.48;;;3.80;99.90;;;;;;5077945;28;20052;-82
2021/12/03 19:37:30;;;;;;;24.63;14.73;;;3.90;99.90;;;;;;5077190;28;20114;-82
2021/12/03 19:40:03;;;;;;;21.02;12.48;;;3.80;99.90;;;;;;5077090;28;20036;-80
2021/12/03 19:45:27;;;;;;;22.10;12.70;;;4.70;99.90;;;;;;5071793;28;20056;-80
2021/12/03 19:50:38;;;;;;;18.80;11.82;;;3.90;99.90;;;;;;5076592;28;20084;-83
2021/12/03 19:55:37;;;;;;;18.00;10.68;;;4.00;99.90;;;;;;5077189;28;20063;-84
2021/12/03 19:58:04;;;;;;;26.80;15.23;;;3.90;99.90;;;;;;5075974;28;20515;-83
2021/12/03 20:00:29;;;;;;;23.25;13.70;;;4.20;99.90;;;;;;5076756;28;20040;-81
2021/12/03 20:02:55;;;;;;;26.10;12.02;;;3.80;99.90;;;;;;5075433;28;20053;-89
2021/12/03 20:05:21;;;;;;;24.85;13.93;;;3.80;99.90;;;;;;5076709;28;20178;-88
2021/12/03 20:07:47;;;;;;;22.65;12.32;;;3.80;99.90;;;;;;5075364;28;20045;-83
2021/12/03 20:10:18;;;;;;;26.52;14.05;;;4.20;99.90;;;;;;5077271;28;20114;-82
2021/12/03 20:12:47;;;;;;;24.58;13.88;;;3.90;99.90;;;;;;5076805;28;20055;-82
2021/12/03 20:15:19;;;;;;;23.17;11.93;;;3.80;99.90;;;;;;5075528;28;20127;-83
2021/12/03 20:17:52;;;;;;;22.52;12.65;;;3.80;99.90;;;;;;5075447;28;20087;-84
2021/12/03 20:20:18;;;;;;;20.90;11.50;;;4.20;99.90;;;;;;5075412;28;20055;-79
2021/12/03 20:27:55;;;;;;;19.20;12.00;;;4.00;99.90;;;;;;5076210;28;20055;-80
2021/12/03 20:37:59;;;;;;;24.05;13.23;;;3.90;99.90;;;;;;5076108;28;20113;-77
2021/12/03 20:40:27;;;;;;;23.73;12.00;;;4.30;99.90;;;;;;5076241;28;20036;-77
2021/12/03 20:53:33;;;;;;;26.10;12.18;;;3.90;99.90;;;;;;5076266;28;20519;-75
2021/12/03 21:09:26;;;;;;;26.38;14.10;;;3.90;99.90;;;;;;5074438;28;20052;-79
2021/12/03 21:11:57;;;;;;;26.92;11.85;;;3.90;99.90;;;;;;5075366;28;20055;-76
2021/12/03 21:14:34;;;;;;;22.77;11.60;;;3.90;99.90;;;;;;5076074;28;20075;-76
2021/12/03 21:17:37;;;;;;;24.95;12.85;;;3.90;99.90;;;;;;5074628;28;20447;-79